Time;durP1;ratioP1;P1;durP2;ratioP2;P2;SDS_P1;SDS_P2;PMS_P1;PMS_P2;Temp;Humidity;BMP_temperature;BMP_pressure;BME280_temperature;BME280_humidity;BME280_pressure;Samples;Min_cycle;Max_cycle;Signal;HPM_P1;HPM_P2
2022/05/14 00:00:24;;;;;;;0.82;0.10;;;14.40;94.30;;;;;;4984524;28;20022;-86
2022/05/14 00:02:50;;;;;;;1.05;0.15;;;14.40;94.10;;;;;;4984146;28;20078;-86
2022/05/14 00:05:19;;;;;;;0.38;0.13;;;14.40;94.50;;;;;;4992577;28;20482;-86
2022/05/14 00:07:46;;;;;;;3.13;0.20;;;14.40;94.50;;;;;;4996575;28;20022;-87
2022/05/14 00:10:12;;;;;;;1.05;0.30;;;14.50;94.50;;;;;;4995004;28;20037;-87
2022/05/14 00:15:22;;;;;;;0.55;0.10;;;14.40;93.90;;;;;;5017077;28;20072;-86
2022/05/14 00:17:47;;;;;;;0.93;0.20;;;14.60;94.40;;;;;;4997809;28;20038;-87
2022/05/14 00:20:14;;;;;;;0.70;0.10;;;14.40;94.60;;;;;;5011718;28;20026;-86
2022/05/14 00:22:40;;;;;;;0.98;0.17;;;14.40;94.70;;;;;;4995503;28;20069;-86
2022/05/14 00:25:07;;;;;;;0.28;0.10;;;14.40;93.90;;;;;;4998108;28;20405;-86
2022/05/14 00:27:33;;;;;;;1.25;0.20;;;14.40;93.40;;;;;;4994409;28;20038;-86
2022/05/14 00:30:00;;;;;;;2.78;0.15;;;14.40;93.60;;;;;;4989805;28;20030;-85
2022/05/14 00:32:26;;;;;;;0.40;0.08;;;14.50;94.40;;;;;;4977862;28;20065;-86
2022/05/14 00:34:51;;;;;;;1.25;0.20;;;14.40;95.60;;;;;;4989648;28;20074;-86
2022/05/14 00:37:17;;;;;;;0.28;0.10;;;14.10;97.20;;;;;;5004433;28;20451;-87
2022/05/14 00:39:43;;;;;;;1.13;0.20;;;14.20;98.20;;;;;;5019786;28;20021;-86
2022/05/14 00:42:10;;;;;;;0.73;0.30;;;14.10;98.70;;;;;;5010081;28;20065;-87
2022/05/14 00:44:35;;;;;;;0.70;0.20;;;13.80;99.20;;;;;;5010530;28;20036;-87
2022/05/14 00:47:09;;;;;;;0.65;0.20;;;13.60;99.90;;;;;;4992464;28;20402;-87
2022/05/14 00:49:35;;;;;;;0.57;0.20;;;13.50;99.90;;;;;;4989742;28;20117;-87
2022/05/14 00:52:01;;;;;;;7.75;0.60;;;13.40;99.90;;;;;;4989980;28;20390;-87
2022/05/14 00:54:38;;;;;;;2.78;0.40;;;13.40;99.90;;;;;;4989716;28;20034;-86
2022/05/14 00:57:10;;;;;;;0.60;0.20;;;13.30;99.90;;;;;;4985963;28;20684;-87
2022/05/14 00:59:36;;;;;;;0.83;0.30;;;13.20;99.90;;;;;;4978765;28;20045;-86
2022/05/14 01:02:04;;;;;;;1.00;0.40;;;13.50;99.90;;;;;;5007371;28;20034;-87
2022/05/14 01:04:30;;;;;;;0.80;0.20;;;13.20;99.90;;;;;;4990280;28;20042;-87
2022/05/14 01:06:58;;;;;;;1.10;0.30;;;13.20;99.90;;;;;;4987144;28;20072;-87
2022/05/14 01:09:25;;;;;;;0.65;0.30;;;13.20;99.90;;;;;;4988214;28;20038;-86
2022/05/14 01:11:54;;;;;;;2.28;0.50;;;13.40;99.90;;;;;;4991369;28;20030;-86
2022/05/14 01:14:22;;;;;;;1.98;0.40;;;13.20;99.90;;;;;;4985195;28;20029;-88
2022/05/14 01:16:47;;;;;;;0.98;0.50;;;13.10;99.90;;;;;;5002597;28;20053;-88
2022/05/14 01:19:13;;;;;;;1.50;0.50;;;13.00;99.90;;;;;;5005151;28;20137;-89
2022/05/14 01:21:54;;;;;;;2.50;0.50;;;13.00;99.90;;;;;;4986836;28;20045;-87
2022/05/14 01:27:26;;;;;;;0.93;0.28;;;12.80;99.90;;;;;;5003056;28;20112;-88
2022/05/14 01:30:00;;;;;;;0.73;0.43;;;12.90;99.90;;;;;;4986390;28;20021;-88
2022/05/14 01:32:34;;;;;;;1.25;0.50;;;13.10;99.90;;;;;;4984819;28;20464;-88
2022/05/14 01:34:59;;;;;;;3.42;0.77;;;12.90;99.90;;;;;;4981577;28;20430;-89
2022/05/14 01:37:25;;;;;;;1.75;0.55;;;12.90;99.90;;;;;;4997226;28;20022;-88
2022/05/14 01:39:52;;;;;;;2.90;0.55;;;12.90;99.90;;;;;;4985785;28;20072;-88
2022/05/14 01:42:18;;;;;;;3.63;0.65;;;12.90;99.90;;;;;;4980999;28;20113;-88
2022/05/14 01:44:43;;;;;;;1.60;0.47;;;13.00;99.90;;;;;;4990804;28;20094;-88
2022/05/14 01:47:10;;;;;;;1.33;0.50;;;12.80;99.90;;;;;;4985932;28;20034;-90
2022/05/14 01:49:39;;;;;;;2.40;0.70;;;12.80;99.90;;;;;;4986819;28;20049;-90
2022/05/14 01:52:05;;;;;;;0.80;0.40;;;12.80;99.90;;;;;;4986363;28;20475;-88
2022/05/14 01:54:33;;;;;;;1.77;0.50;;;12.80;99.90;;;;;;5005572;28;20033;-90
2022/05/14 01:56:58;;;;;;;1.92;0.80;;;12.70;99.90;;;;;;4988903;28;20113;-88
2022/05/14 01:59:26;;;;;;;2.05;0.70;;;12.60;99.90;;;;;;5006217;28;20042;-88
2022/05/14 02:01:51;;;;;;;3.08;0.85;;;12.60;99.90;;;;;;4985494;28;20084;-88
2022/05/14 02:04:17;;;;;;;2.00;0.70;;;12.60;99.90;;;;;;5002676;28;20486;-89
2022/05/14 02:06:44;;;;;;;3.45;0.90;;;12.60;99.90;;;;;;4990850;28;20605;-89
2022/05/14 02:09:12;;;;;;;1.52;0.55;;;12.70;99.90;;;;;;4993931;28;20108;-89
2022/05/14 02:11:42;;;;;;;2.35;0.63;;;12.50;99.90;;;;;;4989798;28;20026;-88
2022/05/14 02:14:11;;;;;;;1.80;0.73;;;12.50;99.90;;;;;;4983504;28;21179;-88
2022/05/14 02:16:37;;;;;;;1.35;0.43;;;12.40;99.90;;;;;;4998530;28;20499;-88
2022/05/14 02:19:04;;;;;;;2.13;0.50;;;12.50;99.90;;;;;;4985467;28;20029;-88
2022/05/14 02:21:32;;;;;;;1.77;0.73;;;12.30;99.90;;;;;;5005607;28;20106;-88
2022/05/14 02:24:02;;;;;;;2.13;0.70;;;12.30;99.90;;;;;;5004212;28;20115;-88
2022/05/14 02:26:28;;;;;;;3.45;0.75;;;12.20;99.90;;;;;;4984395;28;20379;-88
2022/05/14 02:28:53;;;;;;;2.72;0.90;;;12.10;99.90;;;;;;4988664;28;20133;-88
2022/05/14 02:31:21;;;;;;;1.45;0.60;;;12.10;99.90;;;;;;4984602;28;20026;-89
2022/05/14 02:33:48;;;;;;;3.00;1.08;;;12.30;99.90;;;;;;4986731;28;20030;-88
2022/05/14 02:36:13;;;;;;;2.40;0.75;;;12.10;99.90;;;;;;5005635;28;20030;-91
2022/05/14 02:38:39;;;;;;;1.63;0.52;;;11.90;99.90;;;;;;5002358;28;20216;-88
2022/05/14 02:41:06;;;;;;;3.83;0.77;;;12.00;99.90;;;;;;4986627;28;20046;-87
2022/05/14 02:43:33;;;;;;;3.08;0.75;;;11.90;99.90;;;;;;4980829;28;20025;-88
2022/05/14 02:45:59;;;;;;;2.08;0.82;;;11.90;99.90;;;;;;4984959;28;20034;-88
2022/05/14 02:48:25;;;;;;;3.05;0.93;;;11.90;99.90;;;;;;4976027;28;20062;-88
2022/05/14 02:50:51;;;;;;;2.47;1.15;;;12.10;99.90;;;;;;4999602;28;20057;-89
2022/05/14 02:53:17;;;;;;;3.08;1.15;;;11.80;99.90;;;;;;4994960;28;20073;-89
2022/05/14 02:55:43;;;;;;;3.33;0.93;;;11.80;99.90;;;;;;4985936;28;20093;-88
2022/05/14 02:58:10;;;;;;;2.58;1.05;;;11.80;99.90;;;;;;4985756;28;20027;-88
2022/05/14 03:00:36;;;;;;;3.00;0.88;;;11.80;99.90;;;;;;5003034;28;20044;-88
2022/05/14 03:03:03;;;;;;;2.10;0.80;;;11.80;99.90;;;;;;5001491;28;20044;-89
2022/05/14 03:05:29;;;;;;;1.42;0.75;;;11.80;99.90;;;;;;4983069;28;20113;-88
2022/05/14 03:07:55;;;;;;;3.58;1.10;;;11.80;99.90;;;;;;4998911;28;20026;-88
2022/05/14 03:10:21;;;;;;;3.83;0.70;;;11.80;99.90;;;;;;4988784;28;20069;-89
2022/05/14 03:12:46;;;;;;;1.40;0.65;;;11.80;99.90;;;;;;4985066;28;20044;-88
2022/05/14 03:15:13;;;;;;;3.25;0.98;;;11.70;99.90;;;;;;4986755;28;20033;-88
2022/05/14 03:17:38;;;;;;;4.20;0.80;;;11.80;99.90;;;;;;4984650;28;20034;-88
2022/05/14 03:20:07;;;;;;;1.38;0.55;;;11.80;99.90;;;;;;4984856;28;20037;-89
2022/05/14 03:22:38;;;;;;;1.20;0.60;;;11.70;99.90;;;;;;4988270;28;20030;-88
2022/05/14 03:25:06;;;;;;;2.53;0.73;;;11.60;99.90;;;;;;4986019;28;20490;-89
2022/05/14 03:27:32;;;;;;;1.67;0.60;;;11.60;99.90;;;;;;4985499;28;20114;-88
2022/05/14 03:29:59;;;;;;;2.95;0.70;;;11.60;99.90;;;;;;4988347;28;20114;-88
2022/05/14 03:32:26;;;;;;;1.80;0.68;;;11.50;99.90;;;;;;4987742;28;20041;-88
2022/05/14 03:34:54;;;;;;;2.15;0.68;;;11.60;99.90;;;;;;4988601;28;20034;-89
2022/05/14 03:37:24;;;;;;;1.40;0.50;;;11.60;99.90;;;;;;4983801;28;20456;-89
2022/05/14 03:39:50;;;;;;;2.40;0.85;;;11.60;99.90;;;;;;4989943;28;20053;-89
2022/05/14 03:42:16;;;;;;;3.47;1.13;;;11.50;99.90;;;;;;4985405;28;20034;-89
2022/05/14 03:44:42;;;;;;;1.92;0.70;;;11.50;99.90;;;;;;4983526;28;20034;-89
2022/05/14 03:47:09;;;;;;;3.85;0.90;;;11.60;99.90;;;;;;4990535;28;20390;-89
2022/05/14 03:49:34;;;;;;;3.05;0.75;;;11.60;99.90;;;;;;4984816;28;20052;-89
2022/05/14 03:52:05;;;;;;;2.15;0.75;;;11.50;99.90;;;;;;4986030;28;20466;-88
2022/05/14 03:54:32;;;;;;;0.97;0.60;;;11.50;99.90;;;;;;4983506;28;20035;-88
2022/05/14 03:56:57;;;;;;;1.58;0.63;;;11.50;99.90;;;;;;4981054;28;20285;-88
2022/05/14 03:59:23;;;;;;;1.50;0.55;;;11.50;99.90;;;;;;4987279;28;20507;-89
2022/05/14 04:01:48;;;;;;;1.60;0.60;;;11.40;99.90;;;;;;4989240;28;20109;-89
2022/05/14 04:04:15;;;;;;;2.72;0.80;;;11.40;99.90;;;;;;5003608;28;20034;-88
2022/05/14 04:06:42;;;;;;;3.05;0.80;;;11.50;99.90;;;;;;4984659;28;20030;-88
2022/05/14 04:09:08;;;;;;;1.98;0.60;;;11.40;99.90;;;;;;4983613;28;20030;-89
2022/05/14 04:11:37;;;;;;;2.03;0.50;;;11.50;99.90;;;;;;4989155;28;20031;-88
2022/05/14 04:14:03;;;;;;;2.55;0.90;;;11.50;99.90;;;;;;5004649;28;20052;-88
2022/05/14 04:16:29;;;;;;;2.10;0.70;;;11.50;99.90;;;;;;4983558;28;20375;-88
2022/05/14 04:18:55;;;;;;;5.38;0.93;;;11.50;99.90;;;;;;4982542;28;20032;-88
2022/05/14 04:21:21;;;;;;;1.80;0.68;;;11.50;99.90;;;;;;4987455;28;20030;-89
2022/05/14 04:23:47;;;;;;;1.65;0.73;;;11.40;99.90;;;;;;5004472;28;20112;-89
2022/05/14 04:26:13;;;;;;;2.42;0.75;;;11.60;99.90;;;;;;4989186;28;20026;-88
2022/05/14 04:28:38;;;;;;;1.73;0.70;;;11.70;99.90;;;;;;4988017;28;20475;-88
2022/05/14 04:31:05;;;;;;;2.33;0.80;;;11.60;99.90;;;;;;4990364;28;20494;-87
2022/05/14 04:33:30;;;;;;;2.03;0.70;;;11.60;99.90;;;;;;4984342;28;20026;-88
2022/05/14 04:35:56;;;;;;;2.00;0.80;;;11.60;99.90;;;;;;4985729;28;20048;-90
2022/05/14 04:38:22;;;;;;;1.80;0.57;;;11.70;99.90;;;;;;4985542;28;20116;-89
2022/05/14 04:40:49;;;;;;;1.63;0.50;;;11.70;99.90;;;;;;4992579;28;20033;-89
2022/05/14 04:43:15;;;;;;;1.75;0.60;;;12.10;99.90;;;;;;4985573;28;20029;-88
2022/05/14 04:45:42;;;;;;;1.02;0.47;;;11.90;99.90;;;;;;4980439;28;20491;-88
2022/05/14 04:48:09;;;;;;;1.35;0.57;;;11.90;99.90;;;;;;4987313;28;20038;-89
2022/05/14 04:50:35;;;;;;;5.00;0.75;;;12.00;99.90;;;;;;4981211;28;20068;-88
2022/05/14 04:53:01;;;;;;;2.70;0.60;;;12.10;99.90;;;;;;4986962;28;20030;-89
2022/05/14 04:55:28;;;;;;;1.33;0.63;;;12.10;99.90;;;;;;4984934;28;20088;-89
2022/05/14 04:57:55;;;;;;;0.93;0.50;;;12.20;99.90;;;;;;5002303;28;20061;-88
2022/05/14 05:00:23;;;;;;;4.35;0.77;;;12.30;99.90;;;;;;4983350;28;20034;-88
2022/05/14 05:05:33;;;;;;;2.90;0.70;;;12.50;99.90;;;;;;4999362;28;20164;-89
2022/05/14 05:07:59;;;;;;;3.05;0.88;;;12.60;99.90;;;;;;4983206;28;20019;-88
2022/05/14 05:10:25;;;;;;;2.97;0.60;;;12.80;99.90;;;;;;4979210;28;20168;-89
2022/05/14 05:12:54;;;;;;;4.60;0.80;;;12.70;99.90;;;;;;4987294;28;20049;-88
2022/05/14 05:15:20;;;;;;;1.73;0.70;;;12.80;99.90;;;;;;4981898;28;20441;-88
2022/05/14 05:17:47;;;;;;;1.42;0.57;;;12.70;99.90;;;;;;4978655;28;20030;-89
2022/05/14 05:20:13;;;;;;;2.55;0.68;;;13.00;99.90;;;;;;4982925;28;20112;-90
2022/05/14 05:22:40;;;;;;;1.25;0.50;;;13.00;99.90;;;;;;4994405;28;20050;-89
2022/05/14 05:25:08;;;;;;;1.75;0.70;;;13.10;99.90;;;;;;4987675;28;20041;-88
2022/05/14 05:27:35;;;;;;;1.42;0.65;;;13.10;99.90;;;;;;4975583;28;20045;-88
2022/05/14 05:30:02;;;;;;;2.83;0.70;;;13.20;99.90;;;;;;4984146;28;20037;-88
2022/05/14 05:32:28;;;;;;;3.72;0.82;;;13.30;99.90;;;;;;5001141;28;20110;-88
2022/05/14 05:34:55;;;;;;;2.45;0.80;;;13.20;99.90;;;;;;4984933;28;20054;-89
2022/05/14 05:37:21;;;;;;;2.97;1.00;;;13.20;99.90;;;;;;5000268;28;20033;-88
2022/05/14 05:39:47;;;;;;;3.15;0.90;;;13.20;99.90;;;;;;4986276;28;20394;-88
2022/05/14 05:42:12;;;;;;;3.80;1.00;;;13.20;99.90;;;;;;5003618;28;20129;-88
2022/05/14 05:44:39;;;;;;;4.38;1.13;;;13.10;99.90;;;;;;4987979;28;20449;-89
2022/05/14 05:47:06;;;;;;;4.72;1.10;;;13.10;99.90;;;;;;4985291;28;20062;-88
2022/05/14 05:49:33;;;;;;;2.15;1.02;;;13.20;99.90;;;;;;5003454;28;20057;-88
2022/05/14 05:52:01;;;;;;;3.50;1.10;;;13.20;99.90;;;;;;4980021;28;20042;-88
2022/05/14 05:57:12;;;;;;;3.35;1.10;;;13.30;99.90;;;;;;5003189;28;20382;-88
2022/05/14 05:59:37;;;;;;;1.70;0.75;;;13.50;99.90;;;;;;4981857;28;20081;-88
2022/05/14 06:02:03;;;;;;;1.80;0.90;;;13.60;99.90;;;;;;4979350;28;20117;-88
2022/05/14 06:04:30;;;;;;;2.17;1.08;;;13.70;99.90;;;;;;5001432;28;20125;-89
2022/05/14 06:06:56;;;;;;;2.60;0.90;;;13.90;99.90;;;;;;4982126;28;20120;-88
2022/05/14 06:09:24;;;;;;;3.70;1.10;;;14.00;99.90;;;;;;4981538;28;20108;-89
2022/05/14 06:11:50;;;;;;;2.38;0.90;;;14.10;99.90;;;;;;4981948;28;20034;-88
2022/05/14 06:14:17;;;;;;;3.10;1.08;;;14.20;99.90;;;;;;4980345;28;20521;-88
2022/05/14 06:16:46;;;;;;;2.60;1.13;;;14.20;99.90;;;;;;4979128;28;20065;-89
2022/05/14 06:19:12;;;;;;;3.88;1.15;;;14.40;99.90;;;;;;4975501;28;20037;-87
2022/05/14 06:21:40;;;;;;;3.38;0.90;;;14.40;99.90;;;;;;4982727;28;20045;-88
2022/05/14 06:24:08;;;;;;;2.15;1.00;;;14.50;99.90;;;;;;4999167;28;20054;-88
2022/05/14 06:26:34;;;;;;;4.00;1.20;;;14.60;99.90;;;;;;5002480;28;20031;-89
2022/05/14 06:29:01;;;;;;;2.03;0.70;;;14.70;99.90;;;;;;4987328;28;20037;-88
2022/05/14 06:31:27;;;;;;;2.53;1.02;;;14.70;99.90;;;;;;4987657;28;20104;-88
2022/05/14 06:33:56;;;;;;;2.70;1.00;;;14.80;99.90;;;;;;4984578;28;20466;-89
2022/05/14 06:36:23;;;;;;;5.68;1.20;;;15.00;99.90;;;;;;4983697;28;20030;-88
2022/05/14 06:38:53;;;;;;;3.10;0.95;;;15.10;99.90;;;;;;4987356;28;20478;-89
2022/05/14 06:41:18;;;;;;;1.58;0.70;;;15.20;99.90;;;;;;4990893;28;20640;-89
2022/05/14 06:43:44;;;;;;;1.77;0.88;;;15.20;99.90;;;;;;5004092;28;20056;-89
2022/05/14 06:46:10;;;;;;;2.53;1.05;;;15.30;99.90;;;;;;4990159;28;20041;-87
2022/05/14 06:48:36;;;;;;;2.28;0.85;;;15.40;99.90;;;;;;4990408;28;20035;-87
2022/05/14 06:51:09;;;;;;;2.05;0.80;;;15.50;99.90;;;;;;4988840;28;20037;-89
2022/05/14 06:53:37;;;;;;;1.98;0.77;;;15.50;99.90;;;;;;4976111;28;20133;-89
2022/05/14 06:56:14;;;;;;;1.48;0.68;;;15.40;99.90;;;;;;5001134;28;20025;-92
2022/05/14 06:58:44;;;;;;;3.75;0.60;;;15.60;99.90;;;;;;4972143;28;20030;-88
2022/05/14 07:01:12;;;;;;;2.45;0.93;;;15.50;99.90;;;;;;4981657;28;20026;-88
2022/05/14 07:06:40;;;;;;;1.10;0.45;;;15.70;99.90;;;;;;4995101;28;20045;-88
2022/05/14 07:09:17;;;;;;;;;;;16.00;99.90;;;;;;4994670;23;20048;-88
2022/05/14 07:11:47;;;;;;;1.83;0.68;;;16.30;99.90;;;;;;5005379;28;19910;-86
2022/05/14 07:14:16;;;;;;;2.55;0.80;;;16.20;99.90;;;;;;5003197;28;20033;-86
2022/05/14 07:16:42;;;;;;;3.05;0.70;;;16.50;99.90;;;;;;4989694;28;20612;-87
2022/05/14 07:19:17;;;;;;;2.35;0.60;;;16.60;99.90;;;;;;4987079;28;20118;-86
2022/05/14 07:21:47;;;;;;;1.90;0.93;;;16.90;99.90;;;;;;4989451;28;20105;-86
2022/05/14 07:24:25;;;;;;;1.38;0.65;;;17.00;99.90;;;;;;4989265;28;20057;-86
2022/05/14 07:26:57;;;;;;;2.35;0.68;;;17.10;99.90;;;;;;4988150;28;20121;-87
2022/05/14 07:29:24;;;;;;;3.08;0.55;;;17.30;99.90;;;;;;4988540;28;20617;-87
2022/05/14 07:31:52;;;;;;;3.22;0.75;;;17.30;99.90;;;;;;4989733;28;20034;-87
2022/05/14 07:34:20;;;;;;;3.72;0.68;;;17.40;99.90;;;;;;5005751;28;20685;-87
2022/05/14 07:36:49;;;;;;;1.17;0.52;;;17.10;99.90;;;;;;5007845;28;20034;-87
2022/05/14 07:39:17;;;;;;;1.27;0.60;;;17.20;99.90;;;;;;5000767;28;20018;-87
2022/05/14 07:41:46;;;;;;;0.63;0.28;;;17.10;99.90;;;;;;4990226;28;20058;-87
2022/05/14 07:44:19;;;;;;;2.35;0.43;;;17.20;99.90;;;;;;4993354;28;20093;-87
2022/05/14 07:46:47;;;;;;;1.13;0.40;;;17.40;99.90;;;;;;4991556;28;20030;-87
2022/05/14 07:49:14;;;;;;;0.65;0.35;;;17.60;99.90;;;;;;4992322;28;20045;-86
2022/05/14 07:51:40;;;;;;;0.60;0.30;;;17.60;99.90;;;;;;4992073;28;20040;-86
2022/05/14 07:54:10;;;;;;;1.10;0.40;;;17.80;99.90;;;;;;4989653;28;20048;-87
2022/05/14 07:56:38;;;;;;;0.65;0.30;;;17.80;99.90;;;;;;4991586;28;20049;-87
2022/05/14 07:59:04;;;;;;;0.93;0.20;;;18.00;99.90;;;;;;4981312;28;20018;-87
2022/05/14 08:01:30;;;;;;;0.98;0.30;;;17.90;99.90;;;;;;4985995;28;20026;-86
2022/05/14 08:03:56;;;;;;;1.15;0.40;;;18.00;99.90;;;;;;4992614;28;20042;-85
2022/05/14 08:06:22;;;;;;;0.60;0.50;;;17.70;99.90;;;;;;4977402;28;20093;-87
2022/05/14 08:08:51;;;;;;;2.58;0.35;;;18.00;99.90;;;;;;4985666;28;20670;-87
2022/05/14 08:11:17;;;;;;;0.85;0.32;;;18.40;99.90;;;;;;4991284;28;20483;-87
2022/05/14 08:13:43;;;;;;;1.60;0.40;;;18.50;99.90;;;;;;5014781;28;20118;-87
2022/05/14 08:16:08;;;;;;;0.75;0.10;;;18.70;99.90;;;;;;4982529;28;20027;-87
2022/05/14 08:18:34;;;;;;;0.45;0.25;;;18.70;99.90;;;;;;4982749;28;20027;-88
2022/05/14 08:24:29;;;;;;;0.57;0.28;;;18.80;99.50;;;;;;4988164;28;20054;-87
2022/05/14 08:24:34;;;;;;;2.15;0.30;;;18.90;99.90;;;;;;4974848;28;20037;-87
2022/05/14 08:26:34;;;;;;;0.50;0.13;;;19.20;99.90;;;;;;4973882;28;20043;-87
2022/05/14 08:29:11;;;;;;;1.10;0.30;;;19.50;99.80;;;;;;4978419;28;20077;-87
2022/05/14 08:31:37;;;;;;;1.33;0.43;;;19.40;98.80;;;;;;4994687;28;20023;-87
2022/05/14 08:34:03;;;;;;;1.10;0.30;;;19.60;99.90;;;;;;4984177;28;20553;-87
2022/05/14 08:36:36;;;;;;;0.45;0.20;;;19.50;99.60;;;;;;4992594;28;20458;-87
2022/05/14 08:39:05;;;;;;;2.20;0.40;;;19.70;99.90;;;;;;4991367;28;20030;-87
2022/05/14 08:41:39;;;;;;;2.63;0.30;;;19.90;99.90;;;;;;4993706;28;20138;-87
2022/05/14 08:44:23;;;;;;;0.73;0.20;;;20.00;99.90;;;;;;4993509;28;20061;-87
2022/05/14 08:47:04;;;;;;;1.27;0.30;;;20.40;99.50;;;;;;4988234;28;20037;-87
2022/05/14 08:49:44;;;;;;;2.67;0.32;;;20.50;96.90;;;;;;4995701;28;20037;-87
2022/05/14 08:52:30;;;;;;;1.30;0.30;;;20.60;97.40;;;;;;4994607;28;20044;-87
2022/05/14 08:55:18;;;;;;;0.93;0.20;;;20.90;97.20;;;;;;5009889;28;20049;-87
2022/05/14 08:58:32;;;;;;;1.65;0.30;;;21.00;96.60;;;;;;4989510;28;20442;-87
2022/05/14 09:01:04;;;;;;;1.80;0.22;;;21.00;96.30;;;;;;5001789;28;20022;-86
2022/05/14 09:03:32;;;;;;;0.57;0.20;;;21.00;96.50;;;;;;4989288;28;20094;-86
2022/05/14 09:06:10;;;;;;;1.30;0.30;;;21.20;96.80;;;;;;4977575;28;20019;-87
2022/05/14 09:08:36;;;;;;;3.35;0.50;;;21.30;96.80;;;;;;4981570;28;20019;-86
2022/05/14 09:11:16;;;;;;;4.65;0.40;;;21.40;96.50;;;;;;4979256;28;20042;-87
2022/05/14 09:13:46;;;;;;;0.85;0.32;;;21.40;96.00;;;;;;4972718;28;20031;-86
2022/05/14 09:16:35;;;;;;;1.73;0.60;;;21.40;96.30;;;;;;4979906;28;20375;-87
2022/05/14 09:19:13;;;;;;;0.63;0.20;;;21.60;96.10;;;;;;4980041;28;20099;-87
2022/05/14 09:21:53;;;;;;;0.85;0.32;;;21.60;96.50;;;;;;5000188;28;20129;-87
2022/05/14 09:24:26;;;;;;;1.88;0.50;;;21.40;96.40;;;;;;5002216;28;20030;-87
2022/05/14 09:26:53;;;;;;;1.02;0.38;;;21.70;97.00;;;;;;4989055;28;20038;-87
2022/05/14 09:29:26;;;;;;;1.50;0.50;;;21.90;96.10;;;;;;4989425;28;20116;-86
2022/05/14 09:32:17;;;;;;;0.70;0.30;;;22.10;95.10;;;;;;4989701;28;20050;-87
2022/05/14 09:34:47;;;;;;;2.17;0.30;;;22.40;94.90;;;;;;4985607;28;20043;-86
2022/05/14 09:37:18;;;;;;;2.72;0.32;;;22.50;91.80;;;;;;4975337;28;20530;-86
2022/05/14 09:40:08;;;;;;;0.98;0.20;;;22.60;91.70;;;;;;4983014;28;20019;-87
2022/05/14 09:42:53;;;;;;;0.65;0.20;;;22.40;90.80;;;;;;4988715;28;20018;-87
2022/05/14 09:45:37;;;;;;;2.63;0.22;;;22.50;89.80;;;;;;4989189;28;20042;-87
2022/05/14 09:48:18;;;;;;;0.70;0.30;;;22.40;90.30;;;;;;4979963;28;20034;-87
2022/05/14 09:50:48;;;;;;;1.02;0.20;;;22.70;89.60;;;;;;5001891;28;20415;-87
2022/05/14 09:53:26;;;;;;;2.13;0.45;;;22.80;88.40;;;;;;4985681;28;20092;-86
2022/05/14 09:56:06;;;;;;;1.02;0.25;;;23.00;86.70;;;;;;4979219;28;20034;-86
2022/05/14 09:58:56;;;;;;;1.98;0.50;;;22.90;86.60;;;;;;4990181;28;20023;-87
2022/05/14 10:01:41;;;;;;;1.92;0.68;;;22.60;85.60;;;;;;4991236;28;20109;-87
2022/05/14 10:04:07;;;;;;;0.70;0.30;;;22.80;84.60;;;;;;4977440;28;20082;-87
2022/05/14 10:06:48;;;;;;;3.03;0.32;;;22.30;85.40;;;;;;4991896;28;20026;-89
2022/05/14 10:09:46;;;;;;;0.75;0.17;;;22.60;86.50;;;;;;4994234;28;20115;-89
2022/05/14 10:12:18;;;;;;;0.30;0.10;;;22.90;83.90;;;;;;4969845;28;20027;-88
2022/05/14 10:15:12;;;;;;;0.55;0.22;;;23.00;86.90;;;;;;5007043;28;20033;-87
2022/05/14 10:17:53;;;;;;;0.70;0.20;;;23.00;87.00;;;;;;5006427;28;20023;-87
2022/05/14 10:20:27;;;;;;;2.85;0.50;;;23.10;85.30;;;;;;5002886;28;20058;-88
2022/05/14 10:29:26;;;;;;;1.35;0.40;;;23.40;84.20;;;;;;4992258;28;20121;-88
2022/05/14 10:31:58;;;;;;;0.80;0.30;;;23.50;84.60;;;;;;4994055;28;20479;-87
2022/05/14 10:34:42;;;;;;;1.88;0.30;;;23.70;83.90;;;;;;4993930;28;20088;-87
2022/05/14 10:37:23;;;;;;;1.27;0.30;;;23.90;81.50;;;;;;4992409;28;20088;-87
2022/05/14 10:40:21;;;;;;;1.00;0.30;;;23.90;80.20;;;;;;4991872;28;20022;-88
2022/05/14 10:42:53;;;;;;;2.38;0.65;;;24.00;84.00;;;;;;4994220;28;20486;-87
2022/05/14 10:45:21;;;;;;;;;;;23.60;82.20;;;;;;4992999;28;20085;-87
2022/05/14 10:48:09;;;;;;;0.98;0.30;;;23.90;82.50;;;;;;5003951;28;20454;-88
2022/05/14 10:50:56;;;;;;;4.13;0.40;;;24.30;84.20;;;;;;4990237;28;20034;-88
2022/05/14 10:53:22;;;;;;;1.80;0.38;;;24.50;84.80;;;;;;4993670;28;20025;-87
2022/05/14 10:56:06;;;;;;;0.50;0.40;;;24.60;80.40;;;;;;4991501;28;20486;-88
2022/05/14 10:58:43;;;;;;;1.92;0.50;;;24.60;80.80;;;;;;4987991;28;20031;-87
2022/05/14 11:01:41;;;;;;;0.95;0.22;;;24.20;80.90;;;;;;4988861;28;20137;-88
2022/05/14 11:04:15;;;;;;;2.95;0.90;;;24.00;82.50;;;;;;4971958;28;20031;-87
2022/05/14 11:06:59;;;;;;;2.78;0.30;;;24.20;82.50;;;;;;4987886;28;20134;-88
2022/05/14 11:09:31;;;;;;;0.70;0.28;;;24.10;82.20;;;;;;4988946;28;20038;-87
2022/05/14 11:12:05;;;;;;;1.60;0.45;;;24.40;81.20;;;;;;4988093;28;20475;-87
2022/05/14 11:14:46;;;;;;;0.93;0.30;;;24.60;81.20;;;;;;4975080;28;20030;-87
2022/05/14 11:17:26;;;;;;;1.60;0.38;;;24.60;81.30;;;;;;5008246;28;20125;-87
2022/05/14 11:20:15;;;;;;;1.90;0.47;;;24.40;80.70;;;;;;4993063;28;20332;-88
2022/05/14 11:22:52;;;;;;;1.65;0.50;;;24.50;81.40;;;;;;4992897;28;20029;-86
2022/05/14 11:25:23;;;;;;;2.00;0.40;;;24.50;81.40;;;;;;4991042;28;20035;-88
2022/05/14 11:28:13;;;;;;;1.13;0.38;;;24.90;79.80;;;;;;5008319;28;20030;-87
2022/05/14 11:30:47;;;;;;;1.50;0.30;;;24.70;81.80;;;;;;5008473;28;20083;-88
2022/05/14 11:33:28;;;;;;;1.75;0.50;;;25.00;77.00;;;;;;5003545;28;20114;-87
2022/05/14 11:36:24;;;;;;;3.08;0.40;;;25.30;78.90;;;;;;4972215;28;20483;-87
2022/05/14 11:39:10;;;;;;;1.52;0.40;;;25.50;79.70;;;;;;4967796;28;20027;-88
2022/05/14 11:41:37;;;;;;;1.35;0.43;;;25.60;77.40;;;;;;4976463;28;20074;-87
2022/05/14 11:44:12;;;;;;;2.30;0.45;;;25.70;76.00;;;;;;4991623;28;20494;-88
2022/05/14 11:46:51;;;;;;;1.23;0.38;;;25.90;77.10;;;;;;4991313;28;20028;-88
2022/05/14 11:49:27;;;;;;;0.80;0.20;;;26.10;75.70;;;;;;5008156;28;20053;-88
2022/05/14 11:52:10;;;;;;;2.85;0.40;;;26.30;74.70;;;;;;5004395;28;20487;-88
2022/05/14 11:54:47;;;;;;;1.23;0.30;;;26.40;74.50;;;;;;4974411;28;20027;-88
2022/05/14 11:57:34;;;;;;;1.23;0.40;;;26.30;73.10;;;;;;4975010;28;20091;-88
2022/05/14 12:00:12;;;;;;;0.93;0.30;;;26.50;73.70;;;;;;5009824;28;20022;-88
2022/05/14 12:02:49;;;;;;;1.23;0.40;;;26.30;74.00;;;;;;5009743;28;20022;-87
2022/05/14 12:05:19;;;;;;;0.65;0.20;;;26.60;75.10;;;;;;5009434;28;20019;-88
2022/05/14 12:08:06;;;;;;;0.93;0.30;;;26.50;75.00;;;;;;5008141;28;20027;-88
2022/05/14 12:10:38;;;;;;;1.63;0.52;;;26.60;73.80;;;;;;4992822;28;20034;-87
2022/05/14 12:13:22;;;;;;;1.20;0.20;;;27.10;73.60;;;;;;4993747;28;20022;-88
2022/05/14 12:15:54;;;;;;;1.10;0.40;;;26.90;70.80;;;;;;4993779;28;20022;-87
2022/05/14 12:18:27;;;;;;;0.95;0.43;;;26.80;71.10;;;;;;5004012;28;20057;-87
2022/05/14 12:21:03;;;;;;;1.13;0.30;;;26.90;73.60;;;;;;4973716;28;20027;-88
2022/05/14 12:23:42;;;;;;;3.13;0.50;;;27.20;73.30;;;;;;4972070;28;20030;-88
2022/05/14 12:26:30;;;;;;;0.95;0.30;;;27.30;71.20;;;;;;4980265;28;20047;-88
2022/05/14 12:29:01;;;;;;;0.93;0.30;;;27.20;71.30;;;;;;4992646;28;20045;-88
2022/05/14 12:34:19;;;;;;;1.85;0.30;;;27.70;71.30;;;;;;4987423;28;20025;-88
2022/05/14 12:36:51;;;;;;;1.05;0.30;;;27.50;68.90;;;;;;5006505;28;20185;-87
2022/05/14 12:39:27;;;;;;;1.67;0.60;;;27.50;68.20;;;;;;4998921;28;20068;-87
2022/05/14 12:42:04;;;;;;;2.00;0.45;;;27.50;69.80;;;;;;5006191;28;20030;-88
2022/05/14 12:44:45;;;;;;;2.20;0.30;;;27.50;69.20;;;;;;4991494;28;20068;-88
2022/05/14 12:47:28;;;;;;;1.20;0.38;;;27.30;70.30;;;;;;4998557;28;21884;-87
2022/05/14 12:49:58;;;;;;;1.40;0.25;;;27.30;70.20;;;;;;4990383;28;20088;-87
2022/05/14 12:52:29;;;;;;;3.00;0.25;;;27.30;67.90;;;;;;4990691;28;20014;-87
2022/05/14 12:55:11;;;;;;;1.63;0.55;;;27.30;70.00;;;;;;4990518;28;20026;-88
2022/05/14 12:57:39;;;;;;;0.70;0.30;;;27.30;69.80;;;;;;4988590;28;20391;-88
2022/05/14 13:00:10;;;;;;;1.95;0.40;;;27.40;68.30;;;;;;4989878;28;20621;-87
2022/05/14 13:02:41;;;;;;;1.38;0.40;;;27.40;69.00;;;;;;4991858;28;20022;-87
2022/05/14 13:05:32;;;;;;;1.77;0.20;;;27.40;66.10;;;;;;4986314;28;20033;-87
2022/05/14 13:08:12;;;;;;;1.33;0.45;;;27.50;67.20;;;;;;4968930;28;20392;-88
2022/05/14 13:10:45;;;;;;;4.57;1.55;;;27.40;68.50;;;;;;4986509;23;20145;-85
2022/05/14 13:13:11;;;;;;;4.93;1.92;;;27.90;67.80;;;;;;4984625;28;20084;-86
2022/05/14 13:15:38;;;;;;;2.25;0.93;;;28.50;68.10;;;;;;5009974;28;20033;-86
2022/05/14 13:18:20;;;;;;;1.40;0.50;;;28.70;64.90;;;;;;4993412;28;20029;-85
2022/05/14 13:20:46;;;;;;;2.53;0.70;;;29.00;65.80;;;;;;4993685;28;20026;-86
2022/05/14 13:23:19;;;;;;;0.90;0.30;;;29.00;67.30;;;;;;4972213;28;20522;-86
2022/05/14 13:26:01;;;;;;;2.83;0.70;;;28.90;64.20;;;;;;4953019;28;20030;-86
2022/05/14 13:28:30;;;;;;;1.25;0.28;;;28.50;64.20;;;;;;4974789;28;20026;-86
2022/05/14 13:30:57;;;;;;;2.38;0.52;;;28.30;63.60;;;;;;4973838;28;20031;-86